KSANKMXO

Guest
Details From KSAN - San Diego Intl
To KMXO - Monticello Rgnl
Flight Number -
Tags Generated
Created
Modified
Stats Distance 1,359 nm / 2,516 km
Max Altitude 0 ft / 0 m
Waypoints 8
Social Downloads 6
Likes 0
Share VATSIM

Download

Looking for another format? Having issues loading an existing format? Contact us
Advertisement - Login to hide

Notes

Generated

Route

KSAN 14743 ZENFO MERTZ UKDAW OFF04 R0445 KMXO

ID Type Via Altitude Latitude Longitude Leg Dist Tot Dist Heading (true) Name
O KSAN APT - 0 ft / 0 m 32.73712˚ -117.20435˚ - 0 nm - -
14743 FIX - 0 ft / 0 m 34.72589˚ -113.10311˚ 237 nm 237 nm 59° / 61° -
ZENFO FIX - 0 ft / 0 m 36.60336˚ -108.87611˚ 235 nm 472 nm 60° / 63° -
MERTZ FIX - 0 ft / 0 m 38.28378˚ -104.64700˚ 225 nm 697 nm 62° / 65° -
UKDAW FIX - 0 ft / 0 m 39.51656˚ -101.04758˚ 183 nm 881 nm 65° / 67° -
OFF04 FIX - 0 ft / 0 m 41.07084˚ -95.83656˚ 256 nm 1137 nm 67° / 70° -
R0445 FIX - 0 ft / 0 m 42.21569˚ -91.16056˚ 220 nm 1358 nm 70° / 73° -
O KMXO APT - 0 ft / 0 m 42.21892˚ -91.16591˚ 0 nm 1358 nm 309° / 309° -

Altitude Profile

Advertisement - Login to hide

Weather


0- 5 10 15 20 25 30 35+ Temperature / ° C

Clouds and Precipitation
Forecast for 2017-12-19 00:00 UTC. Updated an hour ago

Ground ~20,000 ft ~40,000 ft Winds

KSAN

Details ICAO KSAN (SAN)
Name San Diego Intl
Region United States
Timezone America/Los_Angeles (UTC-8.0)
Stats Elevation 17 ft / 5 m (AMSL)
Location 32.733556° -117.189658°
Runways 1
Magnetic Variation 11.524° E

METAR

KSAN 182151Z 31007KT 10SM FEW250 19/02 A3013 RMK AO2 SLP201 T01940017

Decode

TAF

TAF AMD KSAN 182102Z 1821/1924 29009KT P6SM SKC FM190100 VRB04KT P6SM FEW003 FEW200 FM192000 29007KT P6SM SCT200

Decode

Departure Runways

ID Width Length Bearing (true) Bearing (mag) Surface Threshold Offset Overrun Length
09 200 ft / 61 m 9,387 ft / 2,861 m 106.07° 94.55° Asphalt 699 ft / 213 m 269 ft / 82 m
27 200 ft / 61 m 9,387 ft / 2,861 m 286.08° 274.56° Asphalt 1,811 ft / 552 m 0 ft / 0 m

KMXO

Details ICAO KMXO
Name MONTICELLO RGNL
Region United States
Timezone America/Chicago (UTC-6.0)
Stats Elevation 833 ft / 254 m (AMSL)
Location 42.220018° -91.162910°
Runways 2
Magnetic Variation 1.178° W

METAR

KMXO 182235Z AUTO 24006KT 10SM CLR 06/00 A2982 RMK AO2

Decode

TAF

Not found

Destination Runways

ID Width Length Bearing (true) Bearing (mag) Surface Threshold Offset Overrun Length
09 90 ft / 27 m 2,285 ft / 696 m 90.00° 91.18° Grass 0 ft / 0 m 0 ft / 0 m
15 75 ft / 23 m 4,402 ft / 1,342 m 153.90° 155.08° Concrete 0 ft / 0 m 0 ft / 0 m
27 90 ft / 27 m 2,285 ft / 696 m 270.00° 271.18° Grass 0 ft / 0 m 0 ft / 0 m
33 75 ft / 23 m 4,402 ft / 1,342 m 333.91° 335.09° Concrete 0 ft / 0 m 0 ft / 0 m